Time;durP1;ratioP1;P1;durP2;ratioP2;P2;SDS_P1;SDS_P2;PMS_P1;PMS_P2;Temp;Humidity;BMP_temperature;BMP_pressure;BME280_temperature;BME280_humidity;BME280_pressure;Samples;Min_cycle;Max_cycle;Signal;HPM_P1;HPM_P2
2021/01/20 00:00:07;;;;;;;3.83;2.60;;;21.60;49.10;;;;;;5013203;28;20179;-65
2021/01/20 00:02:33;;;;;;;3.10;2.23;;;21.60;49.10;;;;;;5013093;28;20192;-65
2021/01/20 00:04:58;;;;;;;3.07;2.20;;;21.60;49.10;;;;;;5013128;28;20470;-63
2021/01/20 00:07:24;;;;;;;2.47;1.90;;;21.60;49.10;;;;;;5011817;28;20207;-64
2021/01/20 00:09:49;;;;;;;3.70;2.40;;;21.60;49.20;;;;;;5013151;28;20627;-65
2021/01/20 00:12:15;;;;;;;3.70;2.37;;;21.60;49.20;;;;;;5012926;28;20244;-65
2021/01/20 00:14:41;;;;;;;2.67;2.40;;;21.60;49.20;;;;;;5013065;28;20691;-65
2021/01/20 00:17:06;;;;;;;2.60;2.23;;;21.60;49.20;;;;;;5013303;28;20176;-65
2021/01/20 00:19:32;;;;;;;2.97;2.47;;;21.60;49.20;;;;;;5011880;28;20184;-65
2021/01/20 00:21:57;;;;;;;3.50;2.40;;;21.60;49.20;;;;;;5013137;28;20720;-65
2021/01/20 00:24:23;;;;;;;3.37;2.40;;;21.60;49.20;;;;;;5013022;28;20172;-65
2021/01/20 00:26:49;;;;;;;3.90;2.10;;;21.60;49.20;;;;;;5013137;28;20223;-65
2021/01/20 00:29:14;;;;;;;2.60;2.10;;;21.60;49.20;;;;;;5013219;28;20539;-66
2021/01/20 00:31:40;;;;;;;3.20;2.40;;;21.60;49.20;;;;;;5013035;28;20168;-66
2021/01/20 00:34:06;;;;;;;2.63;2.27;;;21.60;49.30;;;;;;5012886;28;20195;-65
2021/01/20 00:36:31;;;;;;;3.43;2.03;;;21.50;49.20;;;;;;5013125;28;20191;-65
2021/01/20 00:38:57;;;;;;;3.07;2.63;;;21.60;49.30;;;;;;5012889;28;20547;-65
2021/01/20 00:41:22;;;;;;;4.53;2.97;;;21.50;49.20;;;;;;5012773;28;20611;-65
2021/01/20 00:43:48;;;;;;;2.30;1.70;;;21.60;49.30;;;;;;5015163;28;20192;-65
2021/01/20 00:46:14;;;;;;;3.00;2.20;;;21.50;49.30;;;;;;5015451;28;20195;-65
2021/01/20 00:48:39;;;;;;;3.00;2.07;;;21.50;49.30;;;;;;5015100;28;20277;-65
2021/01/20 00:51:05;;;;;;;2.77;2.13;;;21.50;49.30;;;;;;5016660;28;20168;-65
2021/01/20 00:53:31;;;;;;;4.00;2.40;;;21.50;49.30;;;;;;5016276;28;20223;-65
2021/01/20 00:55:56;;;;;;;3.00;2.30;;;21.50;49.30;;;;;;5016575;28;20179;-65
2021/01/20 00:58:22;;;;;;;2.77;1.90;;;21.50;49.30;;;;;;5016261;28;20545;-65
2021/01/20 01:00:47;;;;;;;2.20;1.80;;;21.50;49.30;;;;;;5016405;28;20176;-65
2021/01/20 01:03:13;;;;;;;3.07;2.53;;;21.50;49.30;;;;;;5016002;28;20197;-65
2021/01/20 01:05:38;;;;;;;3.30;2.27;;;21.50;49.30;;;;;;5016111;28;20271;-65
2021/01/20 01:08:04;;;;;;;1.70;1.60;;;21.50;49.30;;;;;;5016263;28;20275;-65
2021/01/20 01:10:30;;;;;;;3.00;2.03;;;21.50;49.30;;;;;;5016033;28;20545;-65
2021/01/20 01:12:56;;;;;;;3.37;2.10;;;21.50;49.30;;;;;;5015793;28;20357;-64
2021/01/20 01:15:21;;;;;;;3.73;2.00;;;21.50;49.30;;;;;;5015928;28;20647;-65
2021/01/20 01:17:47;;;;;;;3.20;2.53;;;21.50;49.30;;;;;;5014491;28;20560;-66
2021/01/20 01:20:13;;;;;;;3.30;2.30;;;21.50;49.30;;;;;;5014628;28;20195;-65
2021/01/20 01:22:39;;;;;;;2.47;2.10;;;21.50;49.30;;;;;;5015653;28;20219;-63
2021/01/20 01:25:05;;;;;;;2.47;2.00;;;21.50;49.30;;;;;;5015742;28;20810;-65
2021/01/20 01:27:31;;;;;;;3.47;2.50;;;21.50;49.30;;;;;;5015919;28;20651;-67
2021/01/20 01:29:56;;;;;;;1.90;1.57;;;21.50;49.30;;;;;;5015052;28;20403;-66
2021/01/20 01:32:22;;;;;;;3.23;2.07;;;21.50;49.30;;;;;;5013446;28;20227;-67
2021/01/20 01:34:48;;;;;;;5.50;2.60;;;21.50;49.30;;;;;;5013408;28;20179;-65
2021/01/20 01:37:13;;;;;;;2.80;1.93;;;21.50;49.30;;;;;;5013424;28;20206;-66
2021/01/20 01:39:39;;;;;;;2.87;2.30;;;21.50;49.30;;;;;;5013352;28;20176;-65
2021/01/20 01:42:05;;;;;;;3.00;2.27;;;21.50;49.30;;;;;;5013274;28;20275;-66
2021/01/20 01:44:33;;;;;;;2.30;1.90;;;21.50;49.30;;;;;;5013257;28;20176;-66
2021/01/20 01:47:00;;;;;;;2.53;1.97;;;21.50;49.30;;;;;;5014709;28;20613;-65
2021/01/20 01:49:26;;;;;;;2.30;2.10;;;21.50;49.30;;;;;;5015595;28;20415;-65
2021/01/20 01:51:53;;;;;;;2.27;1.83;;;21.50;49.30;;;;;;5015181;28;20427;-64
2021/01/20 01:54:19;;;;;;;2.63;1.93;;;21.50;49.30;;;;;;5014502;28;20157;-65
2021/01/20 01:56:44;;;;;;;4.40;1.90;;;21.40;49.30;;;;;;5015139;28;20409;-65
2021/01/20 01:59:12;;;;;;;2.77;2.10;;;21.50;49.30;;;;;;5015091;28;20246;-65
2021/01/20 02:01:38;;;;;;;2.33;1.80;;;21.50;49.40;;;;;;5015030;28;20169;-65
2021/01/20 02:04:04;;;;;;;2.83;1.93;;;21.50;49.30;;;;;;5014958;28;20466;-65
2021/01/20 02:06:29;;;;;;;1.97;1.60;;;21.50;49.40;;;;;;5014984;28;20169;-64
2021/01/20 02:08:55;;;;;;;3.50;2.60;;;21.40;49.30;;;;;;5015231;28;20627;-65
2021/01/20 02:11:21;;;;;;;2.70;1.90;;;21.50;49.40;;;;;;5014737;28;20180;-65
2021/01/20 02:14:01;;;;;;;2.40;2.13;;;21.50;49.90;;;;;;5014684;28;20246;-65
2021/01/20 02:16:31;;;;;;;2.83;1.70;;;21.50;49.30;;;;;;5013507;28;20251;-65
2021/01/20 02:18:58;;;;;;;2.63;1.80;;;21.40;49.30;;;;;;5014763;28;20845;-65
2021/01/20 02:22:01;;;;;;;3.67;1.60;;;21.50;49.40;;;;;;5014735;28;20430;-65
2021/01/20 02:24:44;;;;;;;2.87;2.17;;;21.40;49.30;;;;;;5015117;28;20384;-65
2021/01/20 02:27:28;;;;;;;2.43;1.90;;;21.50;49.40;;;;;;5014799;28;20820;-65
2021/01/20 02:30:09;;;;;;;3.77;2.37;;;21.50;49.40;;;;;;5014549;28;20434;-64
2021/01/20 02:32:36;;;;;;;2.07;1.77;;;21.50;49.40;;;;;;5013202;28;20473;-65
2021/01/20 02:35:03;;;;;;;2.80;1.87;;;21.50;49.40;;;;;;5014419;28;20407;-65
2021/01/20 02:37:30;;;;;;;2.80;2.20;;;21.40;49.30;;;;;;5013124;28;20411;-65
2021/01/20 02:39:57;;;;;;;3.30;2.17;;;21.50;49.40;;;;;;5014363;28;20469;-65
2021/01/20 02:42:22;;;;;;;2.17;1.90;;;21.50;49.40;;;;;;5014258;28;20565;-65
2021/01/20 02:44:49;;;;;;;1.90;1.70;;;21.50;49.40;;;;;;5014303;28;20419;-65
2021/01/20 02:47:14;;;;;;;1.73;1.50;;;21.50;49.40;;;;;;5014132;28;20192;-64
2021/01/20 02:49:40;;;;;;;2.37;1.90;;;21.40;49.30;;;;;;5014199;28;20407;-65
2021/01/20 02:52:54;;;;;;;2.10;1.87;;;21.50;49.40;;;;;;5014059;28;20215;-65
2021/01/20 02:55:23;;;;;;;1.97;1.60;;;21.40;49.20;;;;;;5012015;28;20430;-65
2021/01/20 02:57:54;;;;;;;3.17;1.80;;;21.40;49.30;;;;;;5013953;28;20925;-65
2021/01/20 03:00:21;;;;;;;3.40;1.80;;;21.40;49.40;;;;;;5014256;28;20392;-65
2021/01/20 03:02:49;;;;;;;3.07;2.03;;;21.40;49.40;;;;;;5013883;28;20873;-65
2021/01/20 03:05:17;;;;;;;2.20;1.70;;;21.40;49.40;;;;;;5013884;28;20407;-65
2021/01/20 03:07:43;;;;;;;2.90;2.00;;;21.40;49.30;;;;;;5013756;28;20487;-65
2021/01/20 03:10:11;;;;;;;2.00;1.60;;;21.40;49.40;;;;;;5013813;28;20415;-65
2021/01/20 03:12:37;;;;;;;2.23;1.87;;;21.40;49.30;;;;;;5013606;28;20451;-65
2021/01/20 03:15:04;;;;;;;2.90;1.87;;;21.40;49.40;;;;;;5013829;28;20414;-65
2021/01/20 03:17:31;;;;;;;2.90;1.70;;;21.40;49.40;;;;;;5013699;28;20168;-65
2021/01/20 03:19:57;;;;;;;2.43;1.50;;;21.40;49.30;;;;;;5013689;28;20720;-65
2021/01/20 03:22:23;;;;;;;1.60;1.43;;;21.40;49.30;;;;;;5013574;28;20931;-65
2021/01/20 03:24:49;;;;;;;1.90;1.67;;;21.40;49.30;;;;;;5013584;28;20466;-65
2021/01/20 03:27:14;;;;;;;2.50;1.70;;;21.40;49.40;;;;;;5013756;28;20208;-65
2021/01/20 03:29:40;;;;;;;2.03;1.43;;;21.40;49.40;;;;;;5013502;28;20173;-65
2021/01/20 03:32:06;;;;;;;2.70;1.87;;;21.30;49.40;;;;;;5013368;28;20184;-65
2021/01/20 03:34:31;;;;;;;2.03;1.70;;;21.40;49.50;;;;;;5013523;28;20666;-65
2021/01/20 03:36:57;;;;;;;2.23;1.80;;;21.40;49.40;;;;;;5013495;28;20231;-65
2021/01/20 03:39:22;;;;;;;2.47;1.97;;;21.30;49.30;;;;;;5013412;28;20646;-65
2021/01/20 03:41:48;;;;;;;1.90;1.70;;;21.40;49.40;;;;;;5013291;28;20177;-65
2021/01/20 03:44:14;;;;;;;2.53;1.70;;;21.30;49.30;;;;;;5013588;28;20168;-65
2021/01/20 03:46:39;;;;;;;2.03;1.50;;;21.40;49.40;;;;;;5013283;28;20176;-65
2021/01/20 03:49:05;;;;;;;1.90;1.67;;;21.40;49.40;;;;;;5013630;28;20730;-65
2021/01/20 03:51:31;;;;;;;3.00;1.70;;;21.40;49.40;;;;;;5013265;28;20697;-65
2021/01/20 03:53:57;;;;;;;2.10;1.63;;;21.40;49.40;;;;;;5013325;28;20251;-65
2021/01/20 03:56:23;;;;;;;2.10;1.77;;;21.40;49.40;;;;;;5013253;28;20458;-65
2021/01/20 03:58:49;;;;;;;2.27;1.70;;;21.40;49.30;;;;;;5013235;28;20168;-65
2021/01/20 04:01:14;;;;;;;2.13;1.57;;;21.40;49.40;;;;;;5013214;28;20487;-65
2021/01/20 04:03:40;;;;;;;2.53;1.77;;;21.40;49.40;;;;;;5013154;28;20188;-65
2021/01/20 04:06:06;;;;;;;1.53;1.40;;;21.40;49.40;;;;;;5013164;28;20282;-65
2021/01/20 04:08:31;;;;;;;2.20;1.97;;;21.40;49.40;;;;;;5013326;28;20203;-64
2021/01/20 04:10:57;;;;;;;3.10;1.90;;;21.40;49.40;;;;;;5012994;28;20172;-65
2021/01/20 04:13:23;;;;;;;1.70;1.40;;;21.40;49.40;;;;;;5013406;28;20770;-65
2021/01/20 04:15:49;;;;;;;2.50;1.70;;;21.40;49.40;;;;;;5013051;28;20543;-65
2021/01/20 04:18:15;;;;;;;1.80;1.40;;;21.40;49.30;;;;;;5014776;28;20497;-65
2021/01/20 04:20:40;;;;;;;3.07;1.77;;;21.30;49.30;;;;;;5016942;28;20906;-65
2021/01/20 04:23:06;;;;;;;2.33;1.80;;;21.40;49.40;;;;;;5017112;28;20599;-65
2021/01/20 04:25:31;;;;;;;1.80;1.20;;;21.40;49.30;;;;;;5016877;28;20544;-65
2021/01/20 04:27:57;;;;;;;2.07;1.60;;;21.40;49.30;;;;;;5016817;28;20212;-63
2021/01/20 04:30:23;;;;;;;3.30;2.60;;;21.30;49.30;;;;;;5016742;28;20267;-65
2021/01/20 04:32:49;;;;;;;2.30;1.50;;;21.40;49.40;;;;;;5016690;28;20609;-65
2021/01/20 04:35:14;;;;;;;2.00;1.80;;;21.30;49.40;;;;;;5016689;28;20180;-65
2021/01/20 04:37:40;;;;;;;1.43;1.20;;;21.40;49.40;;;;;;5016658;28;20498;-65
2021/01/20 04:40:06;;;;;;;2.30;1.63;;;21.40;49.40;;;;;;5016591;28;20689;-65
2021/01/20 04:42:33;;;;;;;1.53;1.43;;;21.30;49.30;;;;;;5016493;28;20192;-65
2021/01/20 04:44:59;;;;;;;1.90;1.60;;;21.30;49.30;;;;;;5016678;28;20418;-64
2021/01/20 04:47:26;;;;;;;1.90;1.30;;;21.30;49.30;;;;;;5016385;28;20537;-64
2021/01/20 04:49:53;;;;;;;2.60;1.43;;;21.40;49.30;;;;;;5016432;28;20403;-64
2021/01/20 04:52:22;;;;;;;1.77;1.47;;;21.40;49.30;;;;;;5016297;28;20435;-65
2021/01/20 04:54:49;;;;;;;2.00;1.80;;;21.30;49.30;;;;;;5016289;28;20457;-65
2021/01/20 04:57:15;;;;;;;2.50;2.30;;;21.40;49.30;;;;;;5016245;28;20501;-64
2021/01/20 04:59:42;;;;;;;2.00;1.40;;;21.40;49.40;;;;;;5016245;28;20427;-65
2021/01/20 05:02:10;;;;;;;1.60;1.40;;;21.30;49.30;;;;;;5016174;28;20497;-65
2021/01/20 05:04:39;;;;;;;1.50;1.30;;;21.40;49.40;;;;;;5016074;28;20411;-65
2021/01/20 05:07:08;;;;;;;2.20;1.70;;;21.30;49.30;;;;;;5016338;28;20446;-65
2021/01/20 05:09:34;;;;;;;2.17;1.50;;;21.30;49.30;;;;;;5016004;28;20980;-65
2021/01/20 05:12:00;;;;;;;2.50;1.53;;;21.30;49.30;;;;;;5015831;28;20804;-65
2021/01/20 05:14:26;;;;;;;1.90;1.70;;;21.30;49.40;;;;;;5014771;28;20418;-65
2021/01/20 05:16:53;;;;;;;2.33;1.73;;;21.30;49.40;;;;;;5015971;28;20259;-64
2021/01/20 05:19:40;;;;;;;1.80;1.37;;;21.30;49.40;;;;;;5015903;28;20255;-65
2021/01/20 05:22:06;;;;;;;2.57;2.30;;;21.30;49.30;;;;;;5016031;28;20933;-65
2021/01/20 05:24:36;;;;;;;3.20;1.90;;;21.30;49.40;;;;;;5015752;28;20949;-65
2021/01/20 05:27:03;;;;;;;2.40;1.60;;;21.30;49.40;;;;;;5015605;28;20509;-65
2021/01/20 05:29:29;;;;;;;2.37;1.50;;;21.30;49.40;;;;;;5014574;28;20426;-65
2021/01/20 05:31:55;;;;;;;2.73;1.60;;;21.30;49.50;;;;;;5015618;28;20428;-64
2021/01/20 05:34:22;;;;;;;2.30;1.40;;;21.30;49.40;;;;;;5015620;28;20408;-65
2021/01/20 05:37:06;;;;;;;2.60;1.67;;;21.30;49.40;;;;;;5015542;28;20184;-65
2021/01/20 05:39:32;;;;;;;1.83;1.23;;;21.30;49.40;;;;;;5015841;28;20760;-65
2021/01/20 05:42:05;;;;;;;3.00;2.73;;;21.30;49.50;;;;;;5015313;28;20883;-65
2021/01/20 05:44:31;;;;;;;1.73;1.47;;;21.30;49.40;;;;;;5015715;28;20415;-65
2021/01/20 05:46:57;;;;;;;1.90;1.50;;;21.30;49.40;;;;;;5014014;28;20589;-65
2021/01/20 05:49:28;;;;;;;1.90;1.60;;;21.30;49.40;;;;;;5015408;28;20419;-65
2021/01/20 05:51:54;;;;;;;2.20;1.57;;;21.30;49.40;;;;;;5015238;28;20207;-65
2021/01/20 05:54:33;;;;;;;2.00;1.30;;;21.30;49.40;;;;;;5015186;28;20767;-65
2021/01/20 05:57:13;;;;;;;2.50;1.33;;;21.30;49.40;;;;;;5015217;28;20410;-65
2021/01/20 05:59:40;;;;;;;2.20;1.67;;;21.30;49.30;;;;;;5015110;28;20958;-63
2021/01/20 06:02:06;;;;;;;2.10;1.47;;;21.30;49.30;;;;;;5013719;28;20438;-65
2021/01/20 06:04:33;;;;;;;2.43;1.63;;;21.30;49.20;;;;;;5014984;28;20412;-63
2021/01/20 06:07:05;;;;;;;2.77;1.40;;;21.30;49.20;;;;;;5014839;28;20459;-66
2021/01/20 06:09:33;;;;;;;2.03;1.50;;;21.30;49.20;;;;;;5014983;28;20490;-65
2021/01/20 06:11:59;;;;;;;2.20;1.57;;;21.30;49.20;;;;;;5014722;28;20816;-65
2021/01/20 06:14:25;;;;;;;2.17;1.60;;;21.30;49.20;;;;;;5015035;28;20419;-65
2021/01/20 06:16:55;;;;;;;1.60;1.30;;;21.40;49.20;;;;;;5015039;28;20776;-65
2021/01/20 06:19:55;;;;;;;;;;;;;;;;;;;;;
2021/01/20 06:22:18;;;;;;;1.53;1.37;;;21.40;49.30;;;;;;5013763;28;20439;-65
2021/01/20 06:24:48;;;;;;;1.40;1.30;;;21.40;49.30;;;;;;5014586;28;20510;-65
2021/01/20 06:27:32;;;;;;;1.93;1.20;;;21.30;49.20;;;;;;5014601;28;20780;-65
2021/01/20 06:30:17;;;;;;;2.33;1.47;;;21.30;49.20;;;;;;5013288;28;20490;-64
2021/01/20 06:32:45;;;;;;;1.90;1.20;;;21.40;49.20;;;;;;5014616;28;20443;-66
2021/01/20 06:35:11;;;;;;;2.10;1.33;;;21.40;49.30;;;;;;5014407;28;20902;-66
2021/01/20 06:37:40;;;;;;;1.50;1.13;;;21.40;49.20;;;;;;5013223;28;20411;-66
2021/01/20 06:40:18;;;;;;;2.70;1.83;;;21.40;49.20;;;;;;5014445;28;20411;-65
2021/01/20 06:42:43;;;;;;;2.20;1.37;;;21.50;49.30;;;;;;5014226;28;20426;-66
2021/01/20 06:45:14;;;;;;;1.60;1.20;;;21.50;49.30;;;;;;5014238;28;20964;-65
2021/01/20 06:48:15;;;;;;;1.57;1.10;;;21.50;49.20;;;;;;5014473;28;20278;-67
2021/01/20 06:51:11;;;;;;;3.17;1.70;;;21.50;49.20;;;;;;4993083;28;20615;-65
2021/01/20 06:53:59;;;;;;;1.43;1.17;;;21.50;49.20;;;;;;5014387;28;20427;-65
2021/01/20 06:56:41;;;;;;;2.27;1.60;;;21.40;49.20;;;;;;5014295;28;20461;-66
2021/01/20 06:59:23;;;;;;;2.93;1.63;;;21.40;49.20;;;;;;5014112;28;20398;-65
2021/01/20 07:02:08;;;;;;;2.10;1.03;;;21.40;49.20;;;;;;5013909;28;20502;-64
2021/01/20 07:04:37;;;;;;;1.90;1.40;;;21.50;49.30;;;;;;5014235;28;20438;-68
2021/01/20 07:07:13;;;;;;;2.30;1.37;;;21.50;49.30;;;;;;5013867;28;20518;-66
2021/01/20 07:09:50;;;;;;;2.13;1.53;;;21.50;49.30;;;;;;5013898;28;20395;-65
2021/01/20 07:12:23;;;;;;;3.17;1.53;;;21.50;49.30;;;;;;5013676;28;20487;-66
2021/01/20 07:14:51;;;;;;;1.77;1.50;;;21.50;49.30;;;;;;5013792;28;20474;-65
2021/01/20 07:17:17;;;;;;;1.80;1.20;;;21.50;49.20;;;;;;5013812;28;20399;-66
2021/01/20 07:19:49;;;;;;;2.40;1.10;;;21.50;49.30;;;;;;5013726;28;20423;-66
2021/01/20 07:22:17;;;;;;;1.93;1.20;;;21.60;49.30;;;;;;5013563;28;20526;-64
2021/01/20 07:24:43;;;;;;;1.60;1.10;;;21.60;49.30;;;;;;5013592;28;20454;-66
2021/01/20 07:27:10;;;;;;;1.83;1.23;;;21.60;49.30;;;;;;5013495;28;20498;-66
2021/01/20 07:29:42;;;;;;;2.60;1.80;;;21.50;49.30;;;;;;5013553;28;20411;-66
2021/01/20 07:32:08;;;;;;;1.40;1.10;;;21.60;49.30;;;;;;5013488;28;20427;-66
2021/01/20 07:34:41;;;;;;;1.73;1.17;;;21.60;49.30;;;;;;5013475;28;20450;-65
2021/01/20 07:37:12;;;;;;;1.70;1.43;;;21.60;49.30;;;;;;5013471;28;20468;-66
2021/01/20 07:39:38;;;;;;;1.50;1.23;;;21.60;49.30;;;;;;5013478;28;20412;-66
2021/01/20 07:42:07;;;;;;;2.07;1.20;;;21.60;49.30;;;;;;5012038;28;20440;-65
2021/01/20 07:44:46;;;;;;;1.80;1.33;;;21.60;49.30;;;;;;5013560;28;20470;-65
2021/01/20 07:47:11;;;;;;;1.93;1.30;;;21.60;49.20;;;;;;5013540;28;20497;-67
2021/01/20 07:49:38;;;;;;;1.73;1.30;;;21.60;49.30;;;;;;5013290;28;20407;-66
2021/01/20 07:52:08;;;;;;;1.70;1.40;;;21.60;49.20;;;;;;5012940;28;20698;-67
2021/01/20 07:54:41;;;;;;;2.03;1.30;;;21.70;49.30;;;;;;5013244;28;20403;-68
2021/01/20 07:57:08;;;;;;;1.63;1.20;;;21.70;49.30;;;;;;5013194;28;20416;-66
2021/01/20 07:59:35;;;;;;;1.47;1.10;;;21.60;49.30;;;;;;5013459;28;20746;-65
2021/01/20 08:02:11;;;;;;;1.87;1.10;;;21.60;49.30;;;;;;5013329;28;20944;-66
2021/01/20 08:04:38;;;;;;;1.60;1.20;;;21.70;49.30;;;;;;5013210;28;20457;-66
2021/01/20 08:07:04;;;;;;;1.67;1.33;;;21.70;49.30;;;;;;5013171;28;20824;-65
2021/01/20 08:09:44;;;;;;;1.70;1.43;;;21.70;49.30;;;;;;5014148;28;20454;-64
2021/01/20 08:12:14;;;;;;;2.10;1.40;;;21.70;49.30;;;;;;5011903;28;20821;-65
2021/01/20 08:14:42;;;;;;;2.03;1.37;;;21.70;49.30;;;;;;5013396;28;20388;-66
2021/01/20 08:17:09;;;;;;;2.10;1.23;;;21.70;49.50;;;;;;5013148;28;20416;-65
2021/01/20 08:19:35;;;;;;;1.23;1.00;;;21.70;49.30;;;;;;5013048;28;20435;-66
2021/01/20 08:22:04;;;;;;;1.30;1.13;;;21.70;49.30;;;;;;5013046;28;20435;-67
2021/01/20 08:24:30;;;;;;;1.50;1.10;;;21.70;49.30;;;;;;5013078;28;20438;-66
2021/01/20 08:27:00;;;;;;;2.60;1.10;;;21.70;49.30;;;;;;5012947;28;20929;-68
2021/01/20 08:29:27;;;;;;;1.80;1.23;;;21.70;49.30;;;;;;5013238;28;20415;-65
2021/01/20 08:32:10;;;;;;;1.43;1.23;;;21.70;49.30;;;;;;5013131;28;20484;-65
2021/01/20 08:34:37;;;;;;;1.40;0.97;;;21.70;49.30;;;;;;5013247;28;20415;-65
2021/01/20 08:37:05;;;;;;;2.10;1.10;;;21.70;49.40;;;;;;5012820;28;20770;-64
2021/01/20 08:39:36;;;;;;;1.20;0.90;;;21.70;49.40;;;;;;5012979;28;20463;-64
2021/01/20 08:42:29;;;;;;;1.43;0.90;;;21.70;49.40;;;;;;5012766;28;20500;-65
2021/01/20 08:45:10;;;;;;;1.30;1.00;;;21.70;49.40;;;;;;5013119;28;20732;-65
2021/01/20 08:47:45;;;;;;;1.73;1.00;;;21.70;49.40;;;;;;5012660;28;20455;-65
2021/01/20 08:50:12;;;;;;;1.50;1.00;;;21.60;49.30;;;;;;5013079;28;20406;-65
2021/01/20 08:52:49;;;;;;;1.80;1.20;;;21.60;49.30;;;;;;5012603;28;20791;-65
2021/01/20 08:55:27;;;;;;;1.43;1.10;;;21.60;49.30;;;;;;5012945;28;20431;-61
2021/01/20 08:58:33;;;;;;;2.10;1.17;;;21.60;49.30;;;;;;5012163;28;20601;-65
2021/01/20 09:01:01;;;;;;;1.77;1.20;;;21.60;49.30;;;;;;5012915;28;20418;-64
2021/01/20 09:03:30;;;;;;;1.40;1.20;;;21.60;49.40;;;;;;5012963;28;20944;-65
2021/01/20 09:05:58;;;;;;;1.60;1.10;;;21.60;49.40;;;;;;5016344;28;20473;-64
2021/01/20 09:08:26;;;;;;;1.30;1.10;;;21.60;49.40;;;;;;5016062;28;20453;-65
2021/01/20 09:10:54;;;;;;;1.40;1.20;;;21.60;49.40;;;;;;5015925;28;20414;-67
2021/01/20 09:13:20;;;;;;;1.40;1.00;;;21.60;49.40;;;;;;5014768;28;20474;-64
2021/01/20 09:15:51;;;;;;;1.77;0.90;;;21.60;49.40;;;;;;5016230;28;20419;-64
2021/01/20 09:18:17;;;;;;;1.90;1.07;;;21.60;49.40;;;;;;5015173;28;20415;-64
2021/01/20 09:20:43;;;;;;;1.77;1.30;;;21.60;49.30;;;;;;5014828;28;20415;-65
2021/01/20 09:23:10;;;;;;;1.50;0.97;;;21.60;49.40;;;;;;5013189;28;20534;-65
2021/01/20 09:25:36;;;;;;;1.37;1.00;;;21.60;49.30;;;;;;5013141;28;20412;-64
2021/01/20 09:28:03;;;;;;;1.87;1.20;;;21.60;49.30;;;;;;5014399;28;20506;-62
2021/01/20 09:30:29;;;;;;;1.50;1.30;;;21.60;49.30;;;;;;5014315;28;20416;-66
2021/01/20 09:32:54;;;;;;;1.83;1.20;;;21.60;49.30;;;;;;5014713;28;20526;-64
2021/01/20 09:35:21;;;;;;;1.30;1.20;;;21.60;49.30;;;;;;5015595;28;20498;-64
2021/01/20 09:37:47;;;;;;;1.83;1.30;;;21.60;49.30;;;;;;5015746;28;20184;-65
2021/01/20 09:40:15;;;;;;;1.53;1.20;;;21.60;49.40;;;;;;5015437;28;20407;-64
2021/01/20 09:42:44;;;;;;;2.30;1.20;;;21.60;49.40;;;;;;5015346;28;20934;-64
2021/01/20 09:45:11;;;;;;;1.63;1.07;;;21.60;49.40;;;;;;5015415;28;20419;-64
2021/01/20 09:47:43;;;;;;;1.80;1.20;;;21.60;49.40;;;;;;5015258;28;20513;-64
2021/01/20 09:50:10;;;;;;;1.50;1.07;;;21.60;49.40;;;;;;5015338;28;20469;-64
2021/01/20 09:52:36;;;;;;;1.53;1.13;;;21.60;49.40;;;;;;5015200;28;20435;-64
2021/01/20 09:55:02;;;;;;;1.80;1.20;;;21.60;49.40;;;;;;5015154;28;20410;-64
2021/01/20 09:57:28;;;;;;;1.20;1.00;;;21.60;49.40;;;;;;5015077;28;20172;-64
2021/01/20 09:59:53;;;;;;;2.20;1.30;;;21.60;49.40;;;;;;5014996;28;20427;-64
2021/01/20 10:02:19;;;;;;;1.33;1.10;;;21.60;49.40;;;;;;5014993;28;20275;-64
2021/01/20 10:04:45;;;;;;;2.23;1.30;;;21.60;49.40;;;;;;5013779;28;20282;-64
2021/01/20 10:07:15;;;;;;;2.17;1.30;;;21.60;49.40;;;;;;5015236;28;20739;-64
2021/01/20 10:09:41;;;;;;;1.80;1.00;;;21.60;49.40;;;;;;5014896;28;20421;-64
2021/01/20 10:12:08;;;;;;;1.30;1.20;;;21.60;49.50;;;;;;5014719;28;20493;-64
2021/01/20 10:14:34;;;;;;;1.70;1.10;;;21.60;49.50;;;;;;5013896;28;20514;-65
2021/01/20 10:17:00;;;;;;;2.40;1.27;;;21.60;49.50;;;;;;5012906;28;20511;-64
2021/01/20 10:19:26;;;;;;;2.27;1.23;;;21.60;49.50;;;;;;5014690;28;20416;-65
2021/01/20 10:21:52;;;;;;;1.23;1.10;;;21.60;49.50;;;;;;5014631;28;20180;-64
2021/01/20 10:24:18;;;;;;;1.77;1.03;;;21.60;49.50;;;;;;5014977;28;20180;-64
2021/01/20 10:26:44;;;;;;;1.70;1.30;;;21.60;49.50;;;;;;5014505;28;20426;-64
2021/01/20 10:29:10;;;;;;;2.80;1.30;;;21.60;49.50;;;;;;5014561;28;20172;-64
2021/01/20 10:31:38;;;;;;;1.97;1.30;;;21.60;49.40;;;;;;5014006;28;20466;-63
2021/01/20 10:34:06;;;;;;;1.00;0.80;;;21.60;49.50;;;;;;5014511;28;20407;-65
2021/01/20 10:36:31;;;;;;;5.40;1.63;;;21.60;49.50;;;;;;5014436;28;20422;-67
2021/01/20 10:38:58;;;;;;;1.33;1.10;;;21.60;49.60;;;;;;5014678;28;20407;-63
2021/01/20 10:41:24;;;;;;;1.20;1.00;;;21.60;49.50;;;;;;5014408;28;20176;-63
2021/01/20 10:43:52;;;;;;;3.63;1.60;;;21.70;49.50;;;;;;5014314;28;20435;-66
2021/01/20 10:46:19;;;;;;;1.37;1.13;;;21.70;49.40;;;;;;5015980;28;20439;-63
2021/01/20 10:48:44;;;;;;;1.57;0.90;;;21.70;49.40;;;;;;5012893;28;20537;-62
2021/01/20 10:51:11;;;;;;;1.53;1.10;;;21.70;49.30;;;;;;5014247;28;20503;-62
2021/01/20 10:53:40;;;;;;;1.70;1.13;;;21.70;49.20;;;;;;5014145;28;20184;-62
2021/01/20 10:56:09;;;;;;;2.30;1.07;;;21.80;49.30;;;;;;5014097;28;20774;-63
2021/01/20 10:58:35;;;;;;;1.97;1.37;;;21.80;49.30;;;;;;5014078;28;20411;-62
2021/01/20 11:01:02;;;;;;;1.80;0.97;;;21.80;49.20;;;;;;5014359;28;20420;-66
2021/01/20 11:03:28;;;;;;;1.17;0.80;;;21.80;49.20;;;;;;5012607;28;20447;-66
2021/01/20 11:05:53;;;;;;;1.57;1.00;;;21.90;49.90;;;;;;5014234;28;20492;-66
2021/01/20 11:08:20;;;;;;;1.93;0.93;;;21.90;49.30;;;;;;5013803;28;20207;-65
2021/01/20 11:10:46;;;;;;;1.40;1.20;;;21.80;49.20;;;;;;5014118;28;20619;-65
2021/01/20 11:13:12;;;;;;;1.60;1.10;;;21.90;49.30;;;;;;5014050;28;20436;-66
2021/01/20 11:15:39;;;;;;;2.17;1.03;;;21.90;49.30;;;;;;5013641;28;20411;-65
2021/01/20 11:18:05;;;;;;;1.53;1.10;;;21.90;49.30;;;;;;5013973;28;20861;-63
2021/01/20 11:20:32;;;;;;;1.57;1.13;;;21.90;49.30;;;;;;5013762;28;20418;-63
2021/01/20 11:22:57;;;;;;;1.90;1.07;;;21.90;49.20;;;;;;5013668;28;20956;-61
2021/01/20 11:25:23;;;;;;;1.20;0.90;;;21.90;49.20;;;;;;5013644;28;20400;-63
2021/01/20 11:27:50;;;;;;;1.20;1.10;;;21.90;49.20;;;;;;5012721;28;20463;-62
2021/01/20 11:30:17;;;;;;;1.87;1.00;;;21.90;49.20;;;;;;5013828;28;20176;-63
2021/01/20 11:32:43;;;;;;;1.40;1.03;;;21.90;49.20;;;;;;5013772;28;20437;-63
2021/01/20 11:35:10;;;;;;;1.63;1.10;;;21.90;49.20;;;;;;5013532;28;20409;-63
2021/01/20 11:37:36;;;;;;;1.43;1.00;;;21.90;49.20;;;;;;5013488;28;20494;-63
2021/01/20 11:40:03;;;;;;;1.37;1.00;;;22.00;49.30;;;;;;5013456;28;20415;-62
2021/01/20 11:42:30;;;;;;;1.33;1.00;;;22.00;49.30;;;;;;5013387;28;20200;-66
2021/01/20 11:44:56;;;;;;;1.40;1.03;;;22.00;49.30;;;;;;5013630;28;20507;-66
2021/01/20 11:47:21;;;;;;;1.67;1.30;;;22.00;49.30;;;;;;5013276;28;20872;-65
2021/01/20 11:49:47;;;;;;;1.10;0.90;;;22.00;49.30;;;;;;5013310;28;20631;-66
2021/01/20 11:52:13;;;;;;;2.40;0.90;;;22.00;49.30;;;;;;5013462;28;20185;-65
2021/01/20 11:54:38;;;;;;;1.50;1.10;;;22.00;49.30;;;;;;5013434;28;20518;-66
2021/01/20 11:57:04;;;;;;;1.80;1.20;;;22.00;49.20;;;;;;5013595;28;20227;-65
2021/01/20 11:59:30;;;;;;;1.57;1.30;;;22.00;49.20;;;;;;5013165;28;20647;-65
2021/01/20 12:01:55;;;;;;;0.93;0.83;;;22.00;49.20;;;;;;5013157;28;20725;-63
2021/01/20 12:04:21;;;;;;;1.37;1.00;;;22.00;49.30;;;;;;5013186;28;20325;-64
2021/01/20 12:06:46;;;;;;;1.73;1.00;;;22.00;49.20;;;;;;5013146;28;20211;-64
2021/01/20 12:09:12;;;;;;;1.10;1.00;;;22.00;49.20;;;;;;5013378;28;20678;-64
2021/01/20 12:11:37;;;;;;;1.80;0.77;;;22.10;49.30;;;;;;5012989;28;20192;-64
2021/01/20 12:14:03;;;;;;;1.67;1.10;;;22.10;49.30;;;;;;5013117;28;20179;-64
2021/01/20 12:16:28;;;;;;;1.17;0.90;;;22.10;49.40;;;;;;5012993;28;20176;-64
2021/01/20 12:18:54;;;;;;;1.13;1.00;;;22.10;49.30;;;;;;5013098;28;20173;-64
2021/01/20 12:21:20;;;;;;;1.20;0.87;;;22.10;49.30;;;;;;5013110;28;20536;-64
2021/01/20 12:23:45;;;;;;;1.10;0.90;;;22.10;49.30;;;;;;5012950;28;20275;-64
2021/01/20 12:26:11;;;;;;;1.20;0.90;;;22.10;49.40;;;;;;5013264;28;20234;-65
2021/01/20 12:28:37;;;;;;;1.50;1.00;;;22.10;49.30;;;;;;5012883;28;20200;-66
2021/01/20 12:31:02;;;;;;;1.10;0.97;;;22.10;49.30;;;;;;5013469;28;20164;-67
2021/01/20 12:33:28;;;;;;;3.37;0.90;;;22.10;49.30;;;;;;5012955;28;20705;-67
2021/01/20 12:35:54;;;;;;;1.50;1.10;;;22.10;49.30;;;;;;5012943;28;20183;-65
2021/01/20 12:38:19;;;;;;;1.00;0.77;;;22.10;49.30;;;;;;5013501;28;20172;-68
2021/01/20 12:40:45;;;;;;;1.50;1.10;;;22.10;49.30;;;;;;5017034;28;20259;-68
2021/01/20 12:43:10;;;;;;;1.10;0.90;;;22.10;49.30;;;;;;5016723;28;20242;-66
2021/01/20 12:45:38;;;;;;;1.10;0.80;;;22.10;49.40;;;;;;5017145;28;20526;-64
2021/01/20 12:48:06;;;;;;;1.10;0.90;;;22.10;49.30;;;;;;5016566;28;20254;-64
2021/01/20 12:50:31;;;;;;;1.70;1.00;;;22.10;49.30;;;;;;5016540;28;20411;-66
2021/01/20 12:52:57;;;;;;;1.73;1.03;;;22.10;49.30;;;;;;5016509;28;20801;-65